createdAt,value
2022-09-30T00:01:47.514Z,96993.53
2022-09-30T00:04:18.180Z,96994.59
2022-09-30T00:06:46.929Z,96992.19
2022-09-30T00:09:15.548Z,96993.78
2022-09-30T00:11:44.017Z,96997.06
2022-09-30T00:14:20.787Z,97000.06
2022-09-30T00:16:49.469Z,96994.56
2022-09-30T00:19:17.830Z,97003.69
2022-09-30T00:21:46.178Z,97007.31
2022-09-30T00:24:14.422Z,97002.63
2022-09-30T00:26:42.738Z,97011.78
2022-09-30T00:29:11.229Z,97005.75
2022-09-30T00:31:39.684Z,97008.34
2022-09-30T00:34:08.418Z,96999.50
2022-09-30T00:36:45.758Z,97006.44
2022-09-30T00:39:21.490Z,97001.97
2022-09-30T00:41:52.347Z,96999.84
2022-09-30T00:44:45.661Z,96992.25
2022-09-30T00:47:22.971Z,97002.09
2022-09-30T00:49:51.319Z,97008.13
2022-09-30T00:52:19.716Z,97019.72
2022-09-30T00:54:48.011Z,97016.63
2022-09-30T00:57:16.266Z,97011.22
2022-09-30T00:59:47.954Z,97004.47
2022-09-30T01:02:16.844Z,97004.31
2022-09-30T01:04:45.187Z,96999.41
2022-09-30T01:07:13.483Z,96996.84
2022-09-30T01:09:42.032Z,96990.38
2022-09-30T01:12:16.159Z,96992.16
2022-09-30T01:14:45.112Z,96970.84
2022-09-30T01:17:48.203Z,96974.38
2022-09-30T01:20:28.017Z,96980.88
2022-09-30T01:23:18.640Z,96976.97
2022-09-30T01:26:10.317Z,96979.19
2022-09-30T01:28:55.840Z,96968.75
2022-09-30T01:31:33.350Z,96967.44
2022-09-30T01:34:12.207Z,96981.13
2022-09-30T01:37:21.445Z,96983.78
2022-09-30T01:40:10.547Z,96978.88
2022-09-30T01:42:46.229Z,96978.59
2022-09-30T01:45:17.680Z,96966.13
2022-09-30T01:47:51.742Z,96962.94
2022-09-30T01:50:20.032Z,96962.69
2022-09-30T01:53:29.491Z,96966.56
2022-09-30T01:56:04.578Z,96972.81
2022-09-30T01:59:32.697Z,96977.13
2022-09-30T02:02:15.504Z,96974.09
2022-09-30T02:04:46.450Z,96981.19
2022-09-30T02:07:18.076Z,96983.84
2022-09-30T02:09:58.434Z,96975.34
2022-09-30T02:12:28.486Z,96981.66
2022-09-30T02:15:08.791Z,96994.28
2022-09-30T02:17:47.084Z,96981.59
2022-09-30T02:20:29.867Z,96985.41
2022-09-30T02:23:07.202Z,96972.59
2022-09-30T02:25:42.995Z,96979.25
2022-09-30T02:28:13.362Z,96977.19
2022-09-30T02:30:43.439Z,96982.59
2022-09-30T02:33:19.240Z,96987.16
2022-09-30T02:35:54.732Z,96988.91
2022-09-30T02:38:31.230Z,97001.41
2022-09-30T02:41:03.560Z,96995.00
2022-09-30T02:43:32.381Z,96995.88
2022-09-30T02:46:19.078Z,96993.56
2022-09-30T02:49:29.689Z,97001.78
2022-09-30T02:52:10.318Z,97010.59
2022-09-30T02:55:17.217Z,97010.69
2022-09-30T02:57:54.585Z,97007.22
2022-09-30T03:00:23.732Z,97005.97
2022-09-30T03:02:57.937Z,97004.16
2022-09-30T03:05:26.312Z,97010.81
2022-09-30T03:07:54.728Z,97013.56
2022-09-30T03:10:23.135Z,97011.88
2022-09-30T03:12:59.126Z,97016.53
2022-09-30T03:15:36.356Z,97018.75
2022-09-30T03:18:26.468Z,97012.47
2022-09-30T03:21:09.814Z,97021.91
2022-09-30T03:24:24.540Z,97027.69
2022-09-30T03:27:19.172Z,97028.78
2022-09-30T03:30:08.248Z,97023.72
2022-09-30T03:32:55.019Z,97027.31
2022-09-30T03:35:31.565Z,97039.22
2022-09-30T03:38:12.783Z,97034.56
2022-09-30T03:40:44.694Z,97023.13
2022-09-30T03:43:38.413Z,97032.00
2022-09-30T03:46:27.316Z,97040.69
2022-09-30T03:48:57.533Z,97052.00
2022-09-30T03:51:26.041Z,97052.47
2022-09-30T03:53:54.355Z,97057.19
2022-09-30T03:56:29.845Z,97068.47
2022-09-30T03:58:58.174Z,97059.94
2022-09-30T04:01:26.573Z,97068.19
2022-09-30T04:03:55.089Z,97074.09
2022-09-30T04:06:25.328Z,97071.97
2022-09-30T04:08:54.288Z,97057.59
2022-09-30T04:11:22.544Z,97053.75
2022-09-30T04:13:50.775Z,97051.75
2022-09-30T04:16:19.349Z,97052.00
2022-09-30T04:18:47.668Z,97051.84
2022-09-30T04:21:16.277Z,97053.06
2022-09-30T04:23:44.712Z,97055.28
2022-09-30T04:26:14.092Z,97053.09
2022-09-30T04:28:42.810Z,97042.63
2022-09-30T04:31:12.227Z,97055.69
2022-09-30T04:33:40.708Z,97076.56
2022-09-30T04:36:10.015Z,97080.19
2022-09-30T04:38:38.353Z,97066.81
2022-09-30T04:41:07.007Z,97063.47
2022-09-30T04:43:35.817Z,97062.09
2022-09-30T04:46:04.975Z,97068.94
2022-09-30T04:48:33.309Z,97076.50
2022-09-30T04:51:01.608Z,97071.81
2022-09-30T04:53:30.622Z,97071.19
2022-09-30T04:56:01.787Z,97084.75
2022-09-30T04:58:34.663Z,97083.16
2022-09-30T05:01:09.178Z,97103.72
2022-09-30T05:03:37.845Z,97093.81
2022-09-30T05:06:06.738Z,97109.38
2022-09-30T05:08:35.201Z,97119.44
2022-09-30T05:11:05.778Z,97123.56
2022-09-30T05:13:35.368Z,97123.53
2022-09-30T05:16:04.189Z,97126.25
2022-09-30T05:18:34.291Z,97127.16
2022-09-30T05:21:03.764Z,97132.31
2022-09-30T05:23:32.298Z,97129.00
2022-09-30T05:26:01.182Z,97135.03
2022-09-30T05:28:31.427Z,97140.25
2022-09-30T05:31:01.610Z,97139.66
2022-09-30T05:33:30.146Z,97138.03
2022-09-30T05:36:05.508Z,97140.81
2022-09-30T05:38:34.135Z,97148.94
2022-09-30T05:41:10.985Z,97133.75
2022-09-30T05:43:40.155Z,97143.94
2022-09-30T05:46:08.580Z,97149.13
2022-09-30T05:48:37.049Z,97146.09
2022-09-30T05:51:05.533Z,97143.28
2022-09-30T05:53:34.836Z,97140.00
2022-09-30T05:56:03.104Z,97137.78
2022-09-30T05:58:31.545Z,97142.38
2022-09-30T06:01:13.220Z,97138.78
2022-09-30T06:03:43.427Z,97143.16
2022-09-30T06:06:11.745Z,97142.63
2022-09-30T06:08:40.927Z,97154.13
2022-09-30T06:11:13.873Z,97151.78
2022-09-30T06:13:42.517Z,97153.34
2022-09-30T06:16:11.587Z,97154.09
2022-09-30T06:18:41.728Z,97150.75
2022-09-30T06:21:12.386Z,97148.16
2022-09-30T06:23:40.919Z,97163.25
2022-09-30T06:26:09.959Z,97164.00
2022-09-30T06:28:38.634Z,97172.84
2022-09-30T06:31:07.397Z,97181.72
2022-09-30T06:33:35.699Z,97176.00
2022-09-30T06:36:05.069Z,97193.72
2022-09-30T06:38:34.439Z,97190.59
2022-09-30T06:41:02.767Z,97194.13
2022-09-30T06:43:32.759Z,97193.97
2022-09-30T06:46:15.190Z,97205.09
2022-09-30T06:48:44.742Z,97203.53
2022-09-30T06:51:13.125Z,97200.94
2022-09-30T06:53:43.511Z,97200.09
2022-09-30T06:56:11.900Z,97212.41
2022-09-30T06:58:40.738Z,97203.72
2022-09-30T07:01:08.997Z,97211.91
2022-09-30T07:03:37.459Z,97205.94
2022-09-30T07:06:06.438Z,97202.03
2022-09-30T07:08:35.804Z,97212.44
2022-09-30T07:11:14.876Z,97209.47
2022-09-30T07:13:47.064Z,97205.69
2022-09-30T07:16:16.668Z,97216.69
2022-09-30T07:18:48.022Z,97213.00
2022-09-30T07:21:16.610Z,97211.34
2022-09-30T07:23:48.462Z,97216.94
2022-09-30T07:26:21.988Z,97219.31
2022-09-30T07:28:50.680Z,97220.78
2022-09-30T07:31:39.258Z,97221.63
2022-09-30T07:34:08.503Z,97214.34
2022-09-30T07:36:38.397Z,97219.97
2022-09-30T07:39:08.391Z,97207.34
2022-09-30T07:41:39.228Z,97204.00
2022-09-30T07:44:09.981Z,97210.97
2022-09-30T07:46:40.689Z,97211.19
2022-09-30T07:49:15.593Z,97196.94
2022-09-30T07:51:46.492Z,97206.31
2022-09-30T07:54:16.641Z,97210.69
2022-09-30T07:57:08.676Z,97218.53
2022-09-30T07:59:35.772Z,97221.88
2022-09-30T08:02:04.888Z,97215.25
2022-09-30T08:04:33.321Z,97223.59
2022-09-30T08:07:02.524Z,97221.56
2022-09-30T08:09:31.191Z,97226.50
2022-09-30T08:12:00.101Z,97235.03
2022-09-30T08:14:28.793Z,97237.44
2022-09-30T08:16:58.774Z,97228.84
2022-09-30T08:19:36.360Z,97228.28
2022-09-30T08:22:06.944Z,97235.66
2022-09-30T08:24:35.323Z,97232.59
2022-09-30T08:27:04.208Z,97236.03
2022-09-30T08:32:21.307Z,97237.06
2022-09-30T08:34:49.620Z,97232.56
2022-09-30T08:37:18.763Z,97237.13
2022-09-30T08:39:48.668Z,97218.34
2022-09-30T08:42:47.040Z,97234.50
2022-09-30T08:45:40.044Z,97241.03
2022-09-30T08:48:30.210Z,97241.78
2022-09-30T08:51:27.938Z,97238.22
2022-09-30T08:53:56.893Z,97245.09
2022-09-30T08:56:27.748Z,97244.69
2022-09-30T08:59:09.640Z,97256.53
2022-09-30T09:01:44.104Z,97259.88
2022-09-30T09:04:12.522Z,97258.41
2022-09-30T09:07:19.937Z,97242.81
2022-09-30T09:10:13.397Z,97259.03
2022-09-30T09:12:52.118Z,97250.50
2022-09-30T09:15:45.775Z,97251.59
2022-09-30T09:18:42.976Z,97250.03
2022-09-30T09:21:14.377Z,97268.19
2022-09-30T09:23:42.744Z,97266.94
2022-09-30T09:26:15.118Z,97271.56
2022-09-30T09:28:59.984Z,97268.78
2022-09-30T09:31:28.322Z,97265.56
2022-09-30T09:34:00.912Z,97271.47
2022-09-30T09:36:55.738Z,97273.63
2022-09-30T09:39:30.471Z,97264.63
2022-09-30T09:42:12.624Z,97262.75
2022-09-30T09:44:49.900Z,97267.16
2022-09-30T09:47:19.877Z,97260.19
2022-09-30T09:49:57.531Z,97262.13
2022-09-30T09:52:52.230Z,97261.16
2022-09-30T09:58:26.918Z,97278.66
2022-09-30T10:00:55.311Z,97267.31
2022-09-30T10:03:28.382Z,97277.41
2022-09-30T10:06:19.873Z,97275.53
2022-09-30T10:08:55.638Z,97286.44
2022-09-30T10:11:26.428Z,97280.56
2022-09-30T10:13:58.462Z,97273.75
2022-09-30T10:16:36.282Z,97276.56
2022-09-30T10:19:09.956Z,97268.03
2022-09-30T10:21:41.185Z,97265.94
2022-09-30T10:24:29.279Z,97263.59
2022-09-30T10:26:58.883Z,97250.41
2022-09-30T10:29:33.070Z,97260.94
2022-09-30T10:32:08.242Z,97243.72
2022-09-30T10:34:41.270Z,97250.69
2022-09-30T10:37:16.868Z,97251.66
2022-09-30T10:39:46.014Z,97255.19
2022-09-30T10:42:27.329Z,97254.22
2022-09-30T10:44:57.788Z,97254.56
2022-09-30T10:47:26.837Z,97261.28
2022-09-30T10:50:02.300Z,97252.06
2022-09-30T10:52:35.598Z,97255.97
2022-09-30T10:55:15.709Z,97251.91
2022-09-30T10:57:45.477Z,97258.00
2022-09-30T11:00:26.062Z,97254.44
2022-09-30T11:03:00.239Z,97253.47
2022-09-30T11:05:32.534Z,97251.44
2022-09-30T11:08:21.127Z,97246.81
2022-09-30T11:11:19.246Z,97253.81
2022-09-30T11:14:00.192Z,97253.78
2022-09-30T11:16:59.271Z,97259.50
2022-09-30T11:19:51.808Z,97254.13
2022-09-30T11:22:28.606Z,97255.34
2022-09-30T11:24:57.794Z,97260.50
2022-09-30T11:27:46.465Z,97265.91
2022-09-30T11:30:19.473Z,97265.94
2022-09-30T11:33:08.005Z,97264.97
2022-09-30T11:35:57.012Z,97268.72
2022-09-30T11:38:48.093Z,97269.25
2022-09-30T11:41:25.929Z,97262.94
2022-09-30T11:44:15.579Z,97265.25
2022-09-30T11:47:06.318Z,97267.84
2022-09-30T11:49:52.695Z,97256.72
2022-09-30T11:52:54.600Z,97260.00
2022-09-30T11:55:52.537Z,97263.72
2022-09-30T11:58:40.563Z,97261.41
2022-09-30T12:01:39.238Z,97267.91
2022-09-30T12:04:14.111Z,97262.19
2022-09-30T12:06:47.087Z,97275.09
2022-09-30T12:09:18.457Z,97277.41
2022-09-30T12:11:54.323Z,97278.19
2022-09-30T12:14:43.363Z,97274.59
2022-09-30T12:17:37.261Z,97276.94
2022-09-30T12:20:28.448Z,97267.13
2022-09-30T12:23:22.949Z,97282.72
2022-09-30T12:25:56.609Z,97271.53
2022-09-30T12:28:49.804Z,97264.63
2022-09-30T12:31:55.376Z,97277.88
2022-09-30T12:34:44.814Z,97272.28
2022-09-30T12:37:44.056Z,97275.34
2022-09-30T12:40:19.225Z,97279.72
2022-09-30T12:43:11.614Z,97282.97
2022-09-30T12:46:15.250Z,97286.25
2022-09-30T12:48:52.116Z,97280.88
2022-09-30T12:51:27.635Z,97290.59
2022-09-30T12:54:19.771Z,97292.00
2022-09-30T12:56:48.629Z,97283.91
2022-09-30T12:59:18.878Z,97291.09
2022-09-30T13:01:48.899Z,97295.03
2022-09-30T13:04:29.732Z,97295.72
2022-09-30T13:07:00.945Z,97299.41
2022-09-30T13:09:29.133Z,97294.97
2022-09-30T13:12:01.603Z,97289.91
2022-09-30T13:14:39.811Z,97294.22
2022-09-30T13:17:08.315Z,97290.91
2022-09-30T13:19:47.864Z,97294.59
2022-09-30T13:22:32.372Z,97293.81
2022-09-30T13:25:01.269Z,97294.50
2022-09-30T13:27:55.659Z,97294.78
2022-09-30T13:30:29.868Z,97293.34
2022-09-30T13:33:03.248Z,97297.50
2022-09-30T13:35:52.499Z,97299.06
2022-09-30T13:38:24.730Z,97299.72
2022-09-30T13:41:03.101Z,97297.34
2022-09-30T13:43:41.630Z,97288.69
2022-09-30T13:46:35.801Z,97296.59
2022-09-30T13:49:12.981Z,97294.16
2022-09-30T13:51:41.942Z,97301.53
2022-09-30T13:54:36.298Z,97297.56
2022-09-30T13:57:05.344Z,97290.13
2022-09-30T13:59:52.221Z,97289.81
2022-09-30T14:02:44.279Z,97294.31
2022-09-30T14:05:17.314Z,97296.09
2022-09-30T14:08:43.136Z,97297.09
2022-09-30T14:11:34.725Z,97309.47
2022-09-30T14:14:28.567Z,97317.44
2022-09-30T14:17:15.297Z,97308.75
2022-09-30T14:20:06.525Z,97316.88
2022-09-30T14:22:36.095Z,97316.13
2022-09-30T14:25:04.870Z,97314.94
2022-09-30T14:27:45.977Z,97324.09
2022-09-30T14:30:17.439Z,97335.69
2022-09-30T14:32:50.634Z,97333.00
2022-09-30T14:35:32.867Z,97344.28
2022-09-30T14:38:23.582Z,97341.22
2022-09-30T14:40:53.187Z,97348.44
2022-09-30T14:43:23.827Z,97344.94
2022-09-30T14:45:56.448Z,97358.50
2022-09-30T14:48:28.403Z,97356.56
2022-09-30T14:51:02.389Z,97353.22
2022-09-30T14:53:32.408Z,97358.38
2022-09-30T14:56:01.751Z,97358.53
2022-09-30T14:58:31.551Z,97353.03
2022-09-30T15:01:08.351Z,97358.38
2022-09-30T15:03:39.736Z,97363.16
2022-09-30T15:06:38.813Z,97366.91
2022-09-30T15:09:10.319Z,97367.44
2022-09-30T15:11:39.949Z,97371.94
2022-09-30T15:14:22.729Z,97375.44
2022-09-30T15:16:53.251Z,97380.97
2022-09-30T15:19:30.303Z,97383.78
2022-09-30T15:22:02.798Z,97374.88
2022-09-30T15:24:32.968Z,97382.66
2022-09-30T15:27:01.862Z,97380.19
2022-09-30T15:29:30.466Z,97377.84
2022-09-30T15:32:13.125Z,97371.81
2022-09-30T15:34:43.803Z,97381.25
2022-09-30T15:37:24.928Z,97378.59
2022-09-30T15:40:11.979Z,97386.69
2022-09-30T15:42:44.785Z,97390.97
2022-09-30T15:45:35.455Z,97402.94
2022-09-30T15:48:15.260Z,97398.66
2022-09-30T15:50:53.163Z,97402.50
2022-09-30T15:53:32.120Z,97407.09
2022-09-30T15:56:00.776Z,97412.19
2022-09-30T15:58:33.828Z,97429.06
2022-09-30T16:01:27.045Z,97426.53
2022-09-30T16:04:00.407Z,97431.28
2022-09-30T16:06:36.030Z,97428.31
2022-09-30T16:09:08.781Z,97432.94
2022-09-30T16:11:41.363Z,97434.97
2022-09-30T16:14:37.948Z,97437.16
2022-09-30T16:17:06.614Z,97431.91
2022-09-30T16:19:35.057Z,97439.31
2022-09-30T16:22:30.070Z,97433.47
2022-09-30T16:25:01.863Z,97434.06
2022-09-30T16:27:31.683Z,97436.66
2022-09-30T16:30:01.036Z,97454.38
2022-09-30T16:32:32.971Z,97452.47
2022-09-30T16:35:02.718Z,97454.00
2022-09-30T16:37:32.346Z,97459.44
2022-09-30T16:40:19.565Z,97457.44
2022-09-30T16:42:51.520Z,97457.09
2022-09-30T16:45:21.748Z,97466.09
2022-09-30T16:47:51.687Z,97460.19
2022-09-30T16:50:36.544Z,97475.78
2022-09-30T16:53:08.235Z,97467.81
2022-09-30T16:55:42.002Z,97482.28
2022-09-30T16:58:14.381Z,97484.47
2022-09-30T17:01:04.474Z,97480.56
2022-09-30T17:03:35.151Z,97490.44
2022-09-30T17:06:06.201Z,97499.47
2022-09-30T17:08:35.692Z,97499.16
2022-09-30T17:11:12.561Z,97499.00
2022-09-30T17:13:43.889Z,97497.81
2022-09-30T17:16:14.052Z,97496.19
2022-09-30T17:18:42.652Z,97509.75
2022-09-30T17:21:13.004Z,97518.50
2022-09-30T17:23:41.420Z,97522.47
2022-09-30T17:26:09.975Z,97524.59
2022-09-30T17:28:40.289Z,97528.94
2022-09-30T17:31:13.343Z,97531.03
2022-09-30T17:33:45.272Z,97531.06
2022-09-30T17:36:18.980Z,97536.19
2022-09-30T17:39:15.363Z,97531.81
2022-09-30T17:42:04.527Z,97540.06
2022-09-30T17:45:10.261Z,97540.16
2022-09-30T17:47:52.740Z,97544.22
2022-09-30T17:50:25.548Z,97543.22
2022-09-30T17:52:56.684Z,97549.31
2022-09-30T17:56:02.451Z,97550.69
2022-09-30T17:58:41.195Z,97549.34
2022-09-30T18:01:16.329Z,97552.59
2022-09-30T18:03:48.206Z,97553.34
2022-09-30T18:06:26.980Z,97547.50
2022-09-30T18:08:57.129Z,97549.91
2022-09-30T18:11:27.784Z,97549.47
2022-09-30T18:13:59.531Z,97566.91
2022-09-30T18:16:36.268Z,97564.47
2022-09-30T18:19:11.445Z,97558.31
2022-09-30T18:21:50.562Z,97572.66
2022-09-30T18:24:40.893Z,97578.72
2022-09-30T18:27:13.739Z,97589.06
2022-09-30T18:29:56.988Z,97596.38
2022-09-30T18:32:30.613Z,97590.09
2022-09-30T18:35:04.526Z,97594.00
2022-09-30T18:37:33.823Z,97595.38
2022-09-30T18:40:09.310Z,97599.78
2022-09-30T18:42:48.006Z,97597.09
2022-09-30T18:45:19.207Z,97597.53
2022-09-30T18:47:55.089Z,97599.38
2022-09-30T18:50:32.855Z,97602.19
2022-09-30T18:53:11.597Z,97595.94
2022-09-30T18:55:43.254Z,97598.03
2022-09-30T18:58:17.009Z,97596.97
2022-09-30T19:00:54.901Z,97592.78
2022-09-30T19:03:28.626Z,97592.81
2022-09-30T19:06:01.788Z,97584.97
2022-09-30T19:08:33.351Z,97589.72
2022-09-30T19:11:14.884Z,97593.38
2022-09-30T19:13:52.947Z,97589.69
2022-09-30T19:16:26.375Z,97593.91
2022-09-30T19:19:05.453Z,97598.34
2022-09-30T19:21:37.450Z,97600.69
2022-09-30T19:24:12.319Z,97604.31
2022-09-30T19:26:44.009Z,97614.53
2022-09-30T19:29:14.385Z,97611.66
2022-09-30T19:31:48.409Z,97622.81
2022-09-30T19:34:31.856Z,97631.75
2022-09-30T19:37:00.965Z,97640.84
2022-09-30T19:39:42.957Z,97622.81
2022-09-30T19:42:18.711Z,97620.88
2022-09-30T19:44:57.198Z,97630.91
2022-09-30T19:47:30.832Z,97629.81
2022-09-30T19:50:03.309Z,97637.38
2022-09-30T19:52:32.280Z,97640.31
2022-09-30T19:55:12.058Z,97642.34
2022-09-30T19:57:52.984Z,97640.78
2022-09-30T20:00:30.172Z,97641.53
2022-09-30T20:02:59.362Z,97651.72
2022-09-30T20:05:27.881Z,97648.75
2022-09-30T20:07:57.305Z,97643.34
2022-09-30T20:10:25.618Z,97650.72
2022-09-30T20:12:54.285Z,97655.56
2022-09-30T20:15:45.984Z,97643.00
2022-09-30T20:18:16.124Z,97639.97
2022-09-30T20:20:46.274Z,97648.56
2022-09-30T20:23:18.216Z,97661.28
2022-09-30T20:25:51.762Z,97659.09
2022-09-30T20:28:21.990Z,97662.75
2022-09-30T20:30:52.342Z,97650.66
2022-09-30T20:33:22.526Z,97659.56
2022-09-30T20:35:55.770Z,97654.84
2022-09-30T20:38:25.218Z,97652.97
2022-09-30T20:40:58.741Z,97653.25
2022-09-30T20:43:30.404Z,97654.75
2022-09-30T20:46:02.018Z,97659.78
2022-09-30T20:48:38.433Z,97658.69
2022-09-30T20:51:07.639Z,97663.31
2022-09-30T20:53:38.241Z,97659.31
2022-09-30T20:56:08.401Z,97657.41
2022-09-30T20:58:37.611Z,97658.88
2022-09-30T21:01:10.943Z,97675.06
2022-09-30T21:03:41.228Z,97666.09
2022-09-30T21:06:13.137Z,97667.03
2022-09-30T21:08:43.375Z,97674.78
2022-09-30T21:11:11.910Z,97677.91
2022-09-30T21:13:44.802Z,97680.75
2022-09-30T21:16:16.202Z,97685.28
2022-09-30T21:18:44.989Z,97675.13
2022-09-30T21:21:14.784Z,97675.09
2022-09-30T21:23:43.032Z,97673.47
2022-09-30T21:26:13.362Z,97668.72
2022-09-30T21:28:44.452Z,97676.81
2022-09-30T21:31:35.536Z,97679.50
2022-09-30T21:34:05.909Z,97687.94
2022-09-30T21:36:35.787Z,97680.59
2022-09-30T21:39:04.623Z,97690.84
2022-09-30T21:41:35.800Z,97687.44
2022-09-30T21:44:04.576Z,97686.72
2022-09-30T21:46:34.990Z,97695.94
2022-09-30T21:49:18.731Z,97687.38
2022-09-30T21:51:47.069Z,97695.16
2022-09-30T21:54:15.646Z,97707.69
2022-09-30T21:56:43.966Z,97706.38
2022-09-30T21:59:12.871Z,97709.81
2022-09-30T22:01:41.279Z,97703.59
2022-09-30T22:04:10.852Z,97701.28
2022-09-30T22:06:39.136Z,97706.09
2022-09-30T22:09:07.416Z,97715.16
2022-09-30T22:11:36.342Z,97705.38
2022-09-30T22:14:04.916Z,97698.13
2022-09-30T22:16:37.491Z,97696.56
2022-09-30T22:19:06.422Z,97691.06
2022-09-30T22:21:36.188Z,97700.84
2022-09-30T22:24:05.796Z,97701.31
2022-09-30T22:26:34.670Z,97702.38
2022-09-30T22:29:05.733Z,97711.06
2022-09-30T22:31:34.484Z,97715.75
2022-09-30T22:34:22.926Z,97727.38
2022-09-30T22:37:10.162Z,97741.72
2022-09-30T22:39:38.478Z,97745.84
2022-09-30T22:42:07.599Z,97741.22
2022-09-30T22:44:36.765Z,97743.72
2022-09-30T22:47:05.518Z,97739.63
2022-09-30T22:49:33.914Z,97749.00
2022-09-30T22:52:02.277Z,97753.50
2022-09-30T22:54:30.725Z,97758.31
2022-09-30T22:57:01.756Z,97768.69
2022-09-30T22:59:30.340Z,97761.38
2022-09-30T23:01:58.908Z,97768.97
2022-09-30T23:04:27.670Z,97766.34
2022-09-30T23:06:56.038Z,97759.09
2022-09-30T23:09:24.548Z,97769.75
2022-09-30T23:11:54.495Z,97772.28
2022-09-30T23:14:22.946Z,97762.44
2022-09-30T23:16:51.422Z,97766.22
2022-09-30T23:19:20.142Z,97764.78
2022-09-30T23:21:48.420Z,97759.03
2022-09-30T23:24:16.816Z,97747.63
2022-09-30T23:26:45.042Z,97757.94
2022-09-30T23:29:15.214Z,97753.28
2022-09-30T23:31:43.684Z,97758.22
2022-09-30T23:34:12.310Z,97755.09
2022-09-30T23:36:40.640Z,97756.81
2022-09-30T23:39:19.788Z,97761.63
2022-09-30T23:41:48.715Z,97758.16
2022-09-30T23:44:20.294Z,97754.34
2022-09-30T23:47:07.268Z,97751.03
2022-09-30T23:49:36.177Z,97751.19
2022-09-30T23:52:06.961Z,97751.88
2022-09-30T23:54:37.523Z,97736.75
2022-09-30T23:57:06.053Z,97752.22
2022-09-30T23:59:34.292Z,97751.81
